sensor_id;sensor_type;location;lat;lon;timestamp;temperature;humidity
27631;DHT22;15045;48.848;8.140;2022-07-23T00:02:54;23.90;91.80
27631;DHT22;15045;48.848;8.140;2022-07-23T00:07:45;23.90;91.60
27631;DHT22;15045;48.848;8.140;2022-07-23T00:10:11;23.80;91.00
27631;DHT22;15045;48.848;8.140;2022-07-23T00:12:38;23.80;91.30
27631;DHT22;15045;48.848;8.140;2022-07-23T00:15:04;25.00;91.40
27631;DHT22;15045;48.848;8.140;2022-07-23T00:17:30;23.70;90.70
27631;DHT22;15045;48.848;8.140;2022-07-23T00:19:55;23.50;89.60
27631;DHT22;15045;48.848;8.140;2022-07-23T00:22:21;23.70;88.90
27631;DHT22;15045;48.848;8.140;2022-07-23T00:27:13;23.80;87.30
27631;DHT22;15045;48.848;8.140;2022-07-23T00:32:04;23.80;86.00
27631;DHT22;15045;48.848;8.140;2022-07-23T00:34:30;23.70;86.80
27631;DHT22;15045;48.848;8.140;2022-07-23T00:41:48;23.50;86.30
27631;DHT22;15045;48.848;8.140;2022-07-23T00:44:22;23.30;86.00
27631;DHT22;15045;48.848;8.140;2022-07-23T00:46:51;23.40;87.30
27631;DHT22;15045;48.848;8.140;2022-07-23T00:49:23;24.10;87.90
27631;DHT22;15045;48.848;8.140;2022-07-23T00:51:49;23.20;87.30
27631;DHT22;15045;48.848;8.140;2022-07-23T00:54:16;24.30;88.70
27631;DHT22;15045;48.848;8.140;2022-07-23T00:56:44;23.20;87.70
27631;DHT22;15045;48.848;8.140;2022-07-23T00:59:10;23.00;87.60
27631;DHT22;15045;48.848;8.140;2022-07-23T01:01:37;23.20;88.30
27631;DHT22;15045;48.848;8.140;2022-07-23T01:04:02;24.40;89.50
27631;DHT22;15045;48.848;8.140;2022-07-23T01:08:55;23.10;88.90
27631;DHT22;15045;48.848;8.140;2022-07-23T01:11:21;23.10;89.10
27631;DHT22;15045;48.848;8.140;2022-07-23T01:13:48;23.00;89.80
27631;DHT22;15045;48.848;8.140;2022-07-23T01:16:13;23.00;90.00
27631;DHT22;15045;48.848;8.140;2022-07-23T01:18:39;22.90;90.20
27631;DHT22;15045;48.848;8.140;2022-07-23T01:23:30;22.90;88.40
27631;DHT22;15045;48.848;8.140;2022-07-23T01:28:22;22.90;86.40
27631;DHT22;15045;48.848;8.140;2022-07-23T01:30:48;22.90;85.70
27631;DHT22;15045;48.848;8.140;2022-07-23T01:33:14;25.00;87.20
27631;DHT22;15045;48.848;8.140;2022-07-23T01:35:40;22.90;86.50
27631;DHT22;15045;48.848;8.140;2022-07-23T01:38:05;24.50;87.70
27631;DHT22;15045;48.848;8.140;2022-07-23T01:40:31;22.60;86.40
27631;DHT22;15045;48.848;8.140;2022-07-23T01:42:57;22.60;87.00
27631;DHT22;15045;48.848;8.140;2022-07-23T01:45:22;22.60;87.50
27631;DHT22;15045;48.848;8.140;2022-07-23T01:50:14;22.30;88.20
27631;DHT22;15045;48.848;8.140;2022-07-23T01:55:06;22.30;88.60
27631;DHT22;15045;48.848;8.140;2022-07-23T01:57:32;22.30;89.00
27631;DHT22;15045;48.848;8.140;2022-07-23T01:59:58;22.30;89.10
27631;DHT22;15045;48.848;8.140;2022-07-23T02:04:49;22.20;89.00
27631;DHT22;15045;48.848;8.140;2022-07-23T02:07:15;22.20;89.50
27631;DHT22;15045;48.848;8.140;2022-07-23T02:12:06;22.10;89.80
27631;DHT22;15045;48.848;8.140;2022-07-23T02:16:58;22.00;90.30
27631;DHT22;15045;48.848;8.140;2022-07-23T02:24:16;21.80;90.30
27631;DHT22;15045;48.848;8.140;2022-07-23T02:26:41;21.80;90.60
27631;DHT22;15045;48.848;8.140;2022-07-23T02:29:07;21.70;90.40
27631;DHT22;15045;48.848;8.140;2022-07-23T02:31:34;21.80;90.20
27631;DHT22;15045;48.848;8.140;2022-07-23T02:33:59;21.80;90.50
27631;DHT22;15045;48.848;8.140;2022-07-23T02:36:26;21.80;90.50
27631;DHT22;15045;48.848;8.140;2022-07-23T02:41:18;21.80;90.40
27631;DHT22;15045;48.848;8.140;2022-07-23T02:51:02;22.10;89.30
27631;DHT22;15045;48.848;8.140;2022-07-23T02:53:27;23.30;90.10
27631;DHT22;15045;48.848;8.140;2022-07-23T02:58:19;22.40;88.80
27631;DHT22;15045;48.848;8.140;2022-07-23T03:03:11;22.50;88.30
27631;DHT22;15045;48.848;8.140;2022-07-23T03:05:36;22.50;88.80
27631;DHT22;15045;48.848;8.140;2022-07-23T03:08:02;22.60;88.30
27631;DHT22;15045;48.848;8.140;2022-07-23T03:12:53;22.70;88.30
27631;DHT22;15045;48.848;8.140;2022-07-23T03:15:19;22.70;89.10
27631;DHT22;15045;48.848;8.140;2022-07-23T03:22:36;22.70;88.40
27631;DHT22;15045;48.848;8.140;2022-07-23T03:25:02;22.80;88.90
27631;DHT22;15045;48.848;8.140;2022-07-23T03:27:29;22.80;88.20
27631;DHT22;15045;48.848;8.140;2022-07-23T03:29:56;23.50;89.30
27631;DHT22;15045;48.848;8.140;2022-07-23T03:32:22;22.80;88.60
27631;DHT22;15045;48.848;8.140;2022-07-23T03:37:14;22.70;89.20
27631;DHT22;15045;48.848;8.140;2022-07-23T03:39:40;22.30;89.60
27631;DHT22;15045;48.848;8.140;2022-07-23T03:44:32;22.50;90.00
27631;DHT22;15045;48.848;8.140;2022-07-23T03:46:58;22.40;90.20
27631;DHT22;15045;48.848;8.140;2022-07-23T03:49:23;23.40;90.70
27631;DHT22;15045;48.848;8.140;2022-07-23T04:06:26;22.20;90.60
27631;DHT22;15045;48.848;8.140;2022-07-23T04:08:51;22.00;90.40
27631;DHT22;15045;48.848;8.140;2022-07-23T04:16:09;22.50;90.30
27631;DHT22;15045;48.848;8.140;2022-07-23T04:23:26;22.60;90.00
27631;DHT22;15045;48.848;8.140;2022-07-23T04:33:10;22.60;90.20
27631;DHT22;15045;48.848;8.140;2022-07-23T04:35:36;22.60;90.70
27631;DHT22;15045;48.848;8.140;2022-07-23T04:38:02;23.70;91.00
27631;DHT22;15045;48.848;8.140;2022-07-23T04:40:29;22.80;90.40
27631;DHT22;15045;48.848;8.140;2022-07-23T04:42:55;23.70;90.90
27631;DHT22;15045;48.848;8.140;2022-07-23T04:45:21;23.10;90.50
27631;DHT22;15045;48.848;8.140;2022-07-23T04:47:46;22.90;90.40
27631;DHT22;15045;48.848;8.140;2022-07-23T04:50:12;22.80;89.90
27631;DHT22;15045;48.848;8.140;2022-07-23T04:55:04;22.80;90.00
27631;DHT22;15045;48.848;8.140;2022-07-23T04:57:30;22.90;90.30
27631;DHT22;15045;48.848;8.140;2022-07-23T05:02:21;22.80;90.20
27631;DHT22;15045;48.848;8.140;2022-07-23T05:04:47;22.90;90.40
27631;DHT22;15045;48.848;8.140;2022-07-23T05:07:12;22.90;90.50
27631;DHT22;15045;48.848;8.140;2022-07-23T05:09:38;23.10;90.30
27631;DHT22;15045;48.848;8.140;2022-07-23T05:12:04;23.10;89.80
27631;DHT22;15045;48.848;8.140;2022-07-23T05:14:29;23.20;90.00
27631;DHT22;15045;48.848;8.140;2022-07-23T05:16:55;23.20;90.50
27631;DHT22;15045;48.848;8.140;2022-07-23T05:19:21;23.20;90.30
27631;DHT22;15045;48.848;8.140;2022-07-23T05:21:46;23.10;90.20
27631;DHT22;15045;48.848;8.140;2022-07-23T05:24:12;23.10;90.50
27631;DHT22;15045;48.848;8.140;2022-07-23T05:26:38;23.00;90.30
27631;DHT22;15045;48.848;8.140;2022-07-23T05:29:03;23.00;90.80
27631;DHT22;15045;48.848;8.140;2022-07-23T05:31:29;22.90;90.70
27631;DHT22;15045;48.848;8.140;2022-07-23T05:33:54;22.90;91.40
27631;DHT22;15045;48.848;8.140;2022-07-23T05:36:20;22.80;91.40
27631;DHT22;15045;48.848;8.140;2022-07-23T05:38:45;22.80;91.30
27631;DHT22;15045;48.848;8.140;2022-07-23T05:41:12;22.80;91.50
27631;DHT22;15045;48.848;8.140;2022-07-23T05:43:37;22.80;91.60
27631;DHT22;15045;48.848;8.140;2022-07-23T05:46:03;22.80;92.40
27631;DHT22;15045;48.848;8.140;2022-07-23T05:48:29;22.80;92.40
27631;DHT22;15045;48.848;8.140;2022-07-23T05:50:54;22.40;94.40
27631;DHT22;15045;48.848;8.140;2022-07-23T05:53:20;22.40;94.60
27631;DHT22;15045;48.848;8.140;2022-07-23T05:55:45;22.50;95.40
27631;DHT22;15045;48.848;8.140;2022-07-23T05:58:11;22.50;95.50
27631;DHT22;15045;48.848;8.140;2022-07-23T06:00:36;22.40;95.60
27631;DHT22;15045;48.848;8.140;2022-07-23T06:03:02;22.40;95.60
27631;DHT22;15045;48.848;8.140;2022-07-23T06:05:28;22.40;95.80
27631;DHT22;15045;48.848;8.140;2022-07-23T06:07:53;22.60;96.10
27631;DHT22;15045;48.848;8.140;2022-07-23T06:10:19;22.70;96.60
27631;DHT22;15045;48.848;8.140;2022-07-23T06:12:46;22.80;97.20
27631;DHT22;15045;48.848;8.140;2022-07-23T06:15:11;22.80;98.00
27631;DHT22;15045;48.848;8.140;2022-07-23T06:17:38;22.80;98.00
27631;DHT22;15045;48.848;8.140;2022-07-23T06:20:07;22.80;97.70
27631;DHT22;15045;48.848;8.140;2022-07-23T06:22:34;23.00;96.60
27631;DHT22;15045;48.848;8.140;2022-07-23T06:24:59;23.20;96.20
27631;DHT22;15045;48.848;8.140;2022-07-23T06:27:24;23.20;95.90
27631;DHT22;15045;48.848;8.140;2022-07-23T06:29:50;23.30;95.70
27631;DHT22;15045;48.848;8.140;2022-07-23T06:32:16;23.30;96.40
27631;DHT22;15045;48.848;8.140;2022-07-23T06:34:41;23.30;96.50
27631;DHT22;15045;48.848;8.140;2022-07-23T06:37:07;23.10;96.10
27631;DHT22;15045;48.848;8.140;2022-07-23T06:39:33;23.00;97.20
27631;DHT22;15045;48.848;8.140;2022-07-23T06:41:58;22.80;98.80
27631;DHT22;15045;48.848;8.140;2022-07-23T06:44:24;22.80;98.70
27631;DHT22;15045;48.848;8.140;2022-07-23T06:46:49;22.90;98.00
27631;DHT22;15045;48.848;8.140;2022-07-23T06:49:15;22.90;98.00
27631;DHT22;15045;48.848;8.140;2022-07-23T06:51:40;23.20;97.00
27631;DHT22;15045;48.848;8.140;2022-07-23T06:54:06;23.20;97.60
27631;DHT22;15045;48.848;8.140;2022-07-23T06:56:31;23.30;97.60
27631;DHT22;15045;48.848;8.140;2022-07-23T06:58:57;23.50;97.30
27631;DHT22;15045;48.848;8.140;2022-07-23T07:01:22;23.60;97.70
27631;DHT22;15045;48.848;8.140;2022-07-23T07:03:48;23.60;97.50
27631;DHT22;15045;48.848;8.140;2022-07-23T07:06:14;23.70;97.20
27631;DHT22;15045;48.848;8.140;2022-07-23T07:08:39;23.80;97.20
27631;DHT22;15045;48.848;8.140;2022-07-23T07:11:05;24.00;96.80
27631;DHT22;15045;48.848;8.140;2022-07-23T07:13:30;24.10;97.00
27631;DHT22;15045;48.848;8.140;2022-07-23T07:15:56;24.30;97.30
27631;DHT22;15045;48.848;8.140;2022-07-23T07:18:21;24.40;97.10
27631;DHT22;15045;48.848;8.140;2022-07-23T07:20:47;24.40;97.30
27631;DHT22;15045;48.848;8.140;2022-07-23T07:23:13;24.40;97.60
27631;DHT22;15045;48.848;8.140;2022-07-23T07:25:38;24.20;97.50
27631;DHT22;15045;48.848;8.140;2022-07-23T07:28:04;24.00;97.80
27631;DHT22;15045;48.848;8.140;2022-07-23T07:30:29;23.80;97.50
27631;DHT22;15045;48.848;8.140;2022-07-23T07:32:55;23.70;97.80
27631;DHT22;15045;48.848;8.140;2022-07-23T07:35:20;23.70;98.00
27631;DHT22;15045;48.848;8.140;2022-07-23T07:37:46;23.80;98.00
27631;DHT22;15045;48.848;8.140;2022-07-23T07:40:11;23.80;98.40
27631;DHT22;15045;48.848;8.140;2022-07-23T07:42:50;23.90;98.20
27631;DHT22;15045;48.848;8.140;2022-07-23T07:45:16;24.00;98.30
27631;DHT22;15045;48.848;8.140;2022-07-23T07:47:42;24.00;98.30
27631;DHT22;15045;48.848;8.140;2022-07-23T07:50:09;24.20;98.60
27631;DHT22;15045;48.848;8.140;2022-07-23T07:52:35;24.30;97.40
27631;DHT22;15045;48.848;8.140;2022-07-23T07:55:05;24.50;97.00
27631;DHT22;15045;48.848;8.140;2022-07-23T07:57:31;24.60;97.30
27631;DHT22;15045;48.848;8.140;2022-07-23T07:59:56;24.70;96.40
27631;DHT22;15045;48.848;8.140;2022-07-23T08:02:22;24.70;95.20
27631;DHT22;15045;48.848;8.140;2022-07-23T08:04:48;24.80;95.20
27631;DHT22;15045;48.848;8.140;2022-07-23T08:07:14;24.60;93.30
27631;DHT22;15045;48.848;8.140;2022-07-23T08:09:40;24.50;92.20
27631;DHT22;15045;48.848;8.140;2022-07-23T08:12:05;24.70;92.50
27631;DHT22;15045;48.848;8.140;2022-07-23T08:14:31;24.70;91.60
27631;DHT22;15045;48.848;8.140;2022-07-23T08:16:56;24.90;92.10
27631;DHT22;15045;48.848;8.140;2022-07-23T08:19:22;24.90;93.30
27631;DHT22;15045;48.848;8.140;2022-07-23T08:21:47;25.00;92.80
27631;DHT22;15045;48.848;8.140;2022-07-23T08:24:13;25.00;92.60
27631;DHT22;15045;48.848;8.140;2022-07-23T08:26:38;25.00;92.80
27631;DHT22;15045;48.848;8.140;2022-07-23T08:29:04;25.10;93.50
27631;DHT22;15045;48.848;8.140;2022-07-23T08:31:29;25.20;93.40
27631;DHT22;15045;48.848;8.140;2022-07-23T08:33:55;25.20;92.50
27631;DHT22;15045;48.848;8.140;2022-07-23T08:36:21;25.40;93.10
27631;DHT22;15045;48.848;8.140;2022-07-23T08:38:47;25.30;92.50
27631;DHT22;15045;48.848;8.140;2022-07-23T08:41:12;25.30;92.60
27631;DHT22;15045;48.848;8.140;2022-07-23T08:43:40;25.40;92.40
27631;DHT22;15045;48.848;8.140;2022-07-23T08:46:06;25.50;92.10
27631;DHT22;15045;48.848;8.140;2022-07-23T08:48:34;25.70;92.60
27631;DHT22;15045;48.848;8.140;2022-07-23T08:51:03;25.70;91.80
27631;DHT22;15045;48.848;8.140;2022-07-23T08:53:30;25.80;92.50
27631;DHT22;15045;48.848;8.140;2022-07-23T08:55:58;25.80;92.30
27631;DHT22;15045;48.848;8.140;2022-07-23T08:58:24;25.90;91.80
27631;DHT22;15045;48.848;8.140;2022-07-23T09:00:50;26.30;91.50
27631;DHT22;15045;48.848;8.140;2022-07-23T09:03:20;26.30;91.90
27631;DHT22;15045;48.848;8.140;2022-07-23T09:05:47;26.50;91.60
27631;DHT22;15045;48.848;8.140;2022-07-23T09:08:16;26.70;91.70
27631;DHT22;15045;48.848;8.140;2022-07-23T09:16:08;26.60;91.30
27631;DHT22;15045;48.848;8.140;2022-07-23T09:18:42;26.60;90.40
27631;DHT22;15045;48.848;8.140;2022-07-23T09:21:11;26.70;91.00
27631;DHT22;15045;48.848;8.140;2022-07-23T09:23:41;26.90;90.10
27631;DHT22;15045;48.848;8.140;2022-07-23T09:29:20;27.10;88.80
27631;DHT22;15045;48.848;8.140;2022-07-23T09:31:50;27.00;88.10
27631;DHT22;15045;48.848;8.140;2022-07-23T09:34:27;27.10;87.80
27631;DHT22;15045;48.848;8.140;2022-07-23T09:36:58;27.20;87.90
27631;DHT22;15045;48.848;8.140;2022-07-23T09:39:30;27.40;88.10
27631;DHT22;15045;48.848;8.140;2022-07-23T09:41:56;27.50;86.70
27631;DHT22;15045;48.848;8.140;2022-07-23T09:44:22;27.70;86.20
27631;DHT22;15045;48.848;8.140;2022-07-23T09:46:50;27.90;88.20
27631;DHT22;15045;48.848;8.140;2022-07-23T09:49:22;27.70;85.90
27631;DHT22;15045;48.848;8.140;2022-07-23T09:51:54;28.00;86.30
27631;DHT22;15045;48.848;8.140;2022-07-23T09:54:22;28.10;82.20
27631;DHT22;15045;48.848;8.140;2022-07-23T09:56:49;28.20;83.20
27631;DHT22;15045;48.848;8.140;2022-07-23T09:59:16;28.20;81.60
27631;DHT22;15045;48.848;8.140;2022-07-23T10:01:44;28.10;79.90
27631;DHT22;15045;48.848;8.140;2022-07-23T10:04:11;28.00;78.70
27631;DHT22;15045;48.848;8.140;2022-07-23T10:06:39;28.30;79.50
27631;DHT22;15045;48.848;8.140;2022-07-23T10:09:05;28.60;80.60
27631;DHT22;15045;48.848;8.140;2022-07-23T10:11:33;28.50;77.30
27631;DHT22;15045;48.848;8.140;2022-07-23T10:13:59;28.60;78.00
27631;DHT22;15045;48.848;8.140;2022-07-23T10:16:27;28.90;76.80
27631;DHT22;15045;48.848;8.140;2022-07-23T10:18:53;28.90;78.90
27631;DHT22;15045;48.848;8.140;2022-07-23T10:21:25;29.20;80.60
27631;DHT22;15045;48.848;8.140;2022-07-23T10:34:48;30.00;73.60
27631;DHT22;15045;48.848;8.140;2022-07-23T10:38:07;30.00;74.00
27631;DHT22;15045;48.848;8.140;2022-07-23T10:40:24;30.20;74.00
27631;DHT22;15045;48.848;8.140;2022-07-23T10:42:52;30.10;73.40
27631;DHT22;15045;48.848;8.140;2022-07-23T10:47:50;30.40;72.10
27631;DHT22;15045;48.848;8.140;2022-07-23T10:50:26;30.50;72.30
27631;DHT22;15045;48.848;8.140;2022-07-23T10:57:57;31.00;71.80
27631;DHT22;15045;48.848;8.140;2022-07-23T11:00:27;31.20;71.50
27631;DHT22;15045;48.848;8.140;2022-07-23T11:02:56;31.20;70.00
27631;DHT22;15045;48.848;8.140;2022-07-23T11:05:25;31.30;71.90
27631;DHT22;15045;48.848;8.140;2022-07-23T11:13:37;31.50;68.60
27631;DHT22;15045;48.848;8.140;2022-07-23T11:16:13;31.70;69.40
27631;DHT22;15045;48.848;8.140;2022-07-23T11:24:07;31.80;68.40
27631;DHT22;15045;48.848;8.140;2022-07-23T11:26:49;31.60;67.50
27631;DHT22;15045;48.848;8.140;2022-07-23T11:34:36;31.70;69.60
27631;DHT22;15045;48.848;8.140;2022-07-23T11:37:06;31.90;69.60
27631;DHT22;15045;48.848;8.140;2022-07-23T11:39:33;32.20;68.60
27631;DHT22;15045;48.848;8.140;2022-07-23T11:41:59;32.10;67.40
27631;DHT22;15045;48.848;8.140;2022-07-23T11:49:24;33.20;66.20
27631;DHT22;15045;48.848;8.140;2022-07-23T11:52:07;33.70;63.70
27631;DHT22;15045;48.848;8.140;2022-07-23T11:54:35;33.80;64.40
27631;DHT22;15045;48.848;8.140;2022-07-23T11:57:02;33.80;63.60
27631;DHT22;15045;48.848;8.140;2022-07-23T11:59:32;33.90;62.20
27631;DHT22;15045;48.848;8.140;2022-07-23T12:02:02;33.00;63.10
27631;DHT22;15045;48.848;8.140;2022-07-23T12:04:46;33.00;64.20
27631;DHT22;15045;48.848;8.140;2022-07-23T12:07:35;33.20;64.40
27631;DHT22;15045;48.848;8.140;2022-07-23T12:10:14;33.50;63.30
27631;DHT22;15045;48.848;8.140;2022-07-23T12:12:52;32.80;63.30
27631;DHT22;15045;48.848;8.140;2022-07-23T12:15:23;32.80;64.00
27631;DHT22;15045;48.848;8.140;2022-07-23T12:17:51;32.90;64.00
27631;DHT22;15045;48.848;8.140;2022-07-23T12:20:21;32.60;62.10
27631;DHT22;15045;48.848;8.140;2022-07-23T12:22:50;32.50;62.90
27631;DHT22;15045;48.848;8.140;2022-07-23T12:25:24;32.20;63.90
27631;DHT22;15045;48.848;8.140;2022-07-23T12:31:13;32.60;64.90
27631;DHT22;15045;48.848;8.140;2022-07-23T12:33:39;33.10;63.60
27631;DHT22;15045;48.848;8.140;2022-07-23T12:36:08;33.40;62.10
27631;DHT22;15045;48.848;8.140;2022-07-23T12:38:43;33.50;62.50
27631;DHT22;15045;48.848;8.140;2022-07-23T12:41:09;33.20;60.10
27631;DHT22;15045;48.848;8.140;2022-07-23T12:43:40;33.10;60.60
27631;DHT22;15045;48.848;8.140;2022-07-23T12:46:16;32.70;63.00
27631;DHT22;15045;48.848;8.140;2022-07-23T12:51:26;33.70;60.80
27631;DHT22;15045;48.848;8.140;2022-07-23T12:53:57;33.70;61.30
27631;DHT22;15045;48.848;8.140;2022-07-23T12:56:30;34.20;59.30
27631;DHT22;15045;48.848;8.140;2022-07-23T12:58:58;34.70;59.70
27631;DHT22;15045;48.848;8.140;2022-07-23T13:01:28;35.40;58.80
27631;DHT22;15045;48.848;8.140;2022-07-23T13:06:31;35.50;56.70
27631;DHT22;15045;48.848;8.140;2022-07-23T13:08:57;35.50;57.40
27631;DHT22;15045;48.848;8.140;2022-07-23T13:11:23;35.60;57.20
27631;DHT22;15045;48.848;8.140;2022-07-23T13:13:49;35.60;57.70
27631;DHT22;15045;48.848;8.140;2022-07-23T13:16:15;35.70;57.20
27631;DHT22;15045;48.848;8.140;2022-07-23T13:18:40;36.10;56.40
27631;DHT22;15045;48.848;8.140;2022-07-23T13:21:06;36.60;54.40
27631;DHT22;15045;48.848;8.140;2022-07-23T13:23:32;36.60;54.80
27631;DHT22;15045;48.848;8.140;2022-07-23T13:25:57;36.70;55.30
27631;DHT22;15045;48.848;8.140;2022-07-23T13:28:23;36.80;54.70
27631;DHT22;15045;48.848;8.140;2022-07-23T13:30:49;36.50;54.50
27631;DHT22;15045;48.848;8.140;2022-07-23T13:33:17;35.60;53.30
27631;DHT22;15045;48.848;8.140;2022-07-23T13:35:43;35.20;54.20
27631;DHT22;15045;48.848;8.140;2022-07-23T13:38:09;35.00;55.50
27631;DHT22;15045;48.848;8.140;2022-07-23T13:40:40;34.60;54.80
27631;DHT22;15045;48.848;8.140;2022-07-23T13:43:08;34.70;54.60
27631;DHT22;15045;48.848;8.140;2022-07-23T13:45:34;34.70;54.90
27631;DHT22;15045;48.848;8.140;2022-07-23T13:48:00;34.00;55.30
27631;DHT22;15045;48.848;8.140;2022-07-23T13:50:25;33.80;56.00
27631;DHT22;15045;48.848;8.140;2022-07-23T13:52:51;34.10;57.30
27631;DHT22;15045;48.848;8.140;2022-07-23T13:55:16;33.80;55.20
27631;DHT22;15045;48.848;8.140;2022-07-23T13:57:42;34.40;56.40
27631;DHT22;15045;48.848;8.140;2022-07-23T14:00:09;34.60;55.10
27631;DHT22;15045;48.848;8.140;2022-07-23T14:02:37;35.40;52.90
27631;DHT22;15045;48.848;8.140;2022-07-23T14:05:05;35.00;53.40
27631;DHT22;15045;48.848;8.140;2022-07-23T14:07:30;34.70;54.30
27631;DHT22;15045;48.848;8.140;2022-07-23T14:09:56;34.50;54.10
27631;DHT22;15045;48.848;8.140;2022-07-23T14:12:22;34.80;53.30
27631;DHT22;15045;48.848;8.140;2022-07-23T14:14:47;34.80;55.30
27631;DHT22;15045;48.848;8.140;2022-07-23T14:17:13;34.90;53.90
27631;DHT22;15045;48.848;8.140;2022-07-23T14:19:38;34.50;53.90
27631;DHT22;15045;48.848;8.140;2022-07-23T14:22:04;34.80;53.20
27631;DHT22;15045;48.848;8.140;2022-07-23T14:24:30;34.80;54.80
27631;DHT22;15045;48.848;8.140;2022-07-23T14:26:55;35.80;54.20
27631;DHT22;15045;48.848;8.140;2022-07-23T14:29:21;36.60;52.20
27631;DHT22;15045;48.848;8.140;2022-07-23T14:31:46;37.00;50.00
27631;DHT22;15045;48.848;8.140;2022-07-23T14:34:12;36.60;50.80
27631;DHT22;15045;48.848;8.140;2022-07-23T14:36:38;36.80;52.20
27631;DHT22;15045;48.848;8.140;2022-07-23T14:39:03;36.80;51.40
27631;DHT22;15045;48.848;8.140;2022-07-23T14:41:29;37.90;49.60
27631;DHT22;15045;48.848;8.140;2022-07-23T14:43:55;38.40;51.10
27631;DHT22;15045;48.848;8.140;2022-07-23T14:46:21;41.10;45.90
27631;DHT22;15045;48.848;8.140;2022-07-23T14:48:46;39.60;45.40
27631;DHT22;15045;48.848;8.140;2022-07-23T14:51:12;37.30;49.10
27631;DHT22;15045;48.848;8.140;2022-07-23T14:53:37;37.30;49.80
27631;DHT22;15045;48.848;8.140;2022-07-23T14:56:04;36.40;50.80
27631;DHT22;15045;48.848;8.140;2022-07-23T14:58:30;35.70;52.20
27631;DHT22;15045;48.848;8.140;2022-07-23T15:00:55;35.20;53.40
27631;DHT22;15045;48.848;8.140;2022-07-23T15:03:21;35.30;53.30
27631;DHT22;15045;48.848;8.140;2022-07-23T15:05:46;35.10;53.90
27631;DHT22;15045;48.848;8.140;2022-07-23T15:08:12;35.00;54.50
27631;DHT22;15045;48.848;8.140;2022-07-23T15:10:37;34.30;54.10
27631;DHT22;15045;48.848;8.140;2022-07-23T15:13:03;33.80;55.20
27631;DHT22;15045;48.848;8.140;2022-07-23T15:15:30;33.40;56.00
27631;DHT22;15045;48.848;8.140;2022-07-23T15:17:55;33.10;57.70
27631;DHT22;15045;48.848;8.140;2022-07-23T15:20:21;32.90;58.40
27631;DHT22;15045;48.848;8.140;2022-07-23T15:22:46;32.40;59.50
27631;DHT22;15045;48.848;8.140;2022-07-23T15:25:13;32.00;60.10
27631;DHT22;15045;48.848;8.140;2022-07-23T15:27:39;31.80;60.90
27631;DHT22;15045;48.848;8.140;2022-07-23T15:30:05;31.70;61.00
27631;DHT22;15045;48.848;8.140;2022-07-23T15:32:31;31.60;61.50
27631;DHT22;15045;48.848;8.140;2022-07-23T15:34:56;31.70;61.60
27631;DHT22;15045;48.848;8.140;2022-07-23T15:37:22;31.90;60.70
27631;DHT22;15045;48.848;8.140;2022-07-23T15:39:51;32.30;58.60
27631;DHT22;15045;48.848;8.140;2022-07-23T15:42:17;33.00;57.00
27631;DHT22;15045;48.848;8.140;2022-07-23T15:44:43;34.10;57.30
27631;DHT22;15045;48.848;8.140;2022-07-23T15:47:14;38.60;53.00
27631;DHT22;15045;48.848;8.140;2022-07-23T15:49:40;38.80;48.40
27631;DHT22;15045;48.848;8.140;2022-07-23T15:52:06;38.30;49.20
27631;DHT22;15045;48.848;8.140;2022-07-23T15:54:31;37.90;48.50
27631;DHT22;15045;48.848;8.140;2022-07-23T15:56:57;42.50;45.20
27631;DHT22;15045;48.848;8.140;2022-07-23T15:59:23;44.90;42.10
27631;DHT22;15045;48.848;8.140;2022-07-23T16:01:48;45.50;38.60
27631;DHT22;15045;48.848;8.140;2022-07-23T16:04:14;47.00;39.10
27631;DHT22;15045;48.848;8.140;2022-07-23T16:06:39;48.70;35.70
27631;DHT22;15045;48.848;8.140;2022-07-23T16:09:07;44.30;38.00
27631;DHT22;15045;48.848;8.140;2022-07-23T16:11:33;41.60;41.90
27631;DHT22;15045;48.848;8.140;2022-07-23T16:13:58;40.60;43.20
27631;DHT22;15045;48.848;8.140;2022-07-23T16:16:24;39.80;44.20
27631;DHT22;15045;48.848;8.140;2022-07-23T16:18:51;41.90;42.80
27631;DHT22;15045;48.848;8.140;2022-07-23T16:21:17;40.30;41.60
27631;DHT22;15045;48.848;8.140;2022-07-23T16:23:43;40.30;42.50
27631;DHT22;15045;48.848;8.140;2022-07-23T16:26:08;39.40;45.50
27631;DHT22;15045;48.848;8.140;2022-07-23T16:28:34;40.00;44.70
27631;DHT22;15045;48.848;8.140;2022-07-23T16:30:59;38.20;46.60
27631;DHT22;15045;48.848;8.140;2022-07-23T16:33:25;40.80;45.30
27631;DHT22;15045;48.848;8.140;2022-07-23T16:35:50;41.60;43.40
27631;DHT22;15045;48.848;8.140;2022-07-23T16:38:16;41.50;42.60
27631;DHT22;15045;48.848;8.140;2022-07-23T16:40:42;43.70;40.50
27631;DHT22;15045;48.848;8.140;2022-07-23T16:43:08;45.80;37.70
27631;DHT22;15045;48.848;8.140;2022-07-23T16:45:34;46.30;36.70
27631;DHT22;15045;48.848;8.140;2022-07-23T16:47:59;46.30;36.00
27631;DHT22;15045;48.848;8.140;2022-07-23T16:50:25;44.50;36.20
27631;DHT22;15045;48.848;8.140;2022-07-23T16:52:51;41.20;40.60
27631;DHT22;15045;48.848;8.140;2022-07-23T16:55:16;40.00;44.30
27631;DHT22;15045;48.848;8.140;2022-07-23T16:57:42;43.00;41.90
27631;DHT22;15045;48.848;8.140;2022-07-23T17:00:08;44.60;37.40
27631;DHT22;15045;48.848;8.140;2022-07-23T17:02:36;44.90;36.80
27631;DHT22;15045;48.848;8.140;2022-07-23T17:05:03;45.90;37.00
27631;DHT22;15045;48.848;8.140;2022-07-23T17:07:28;45.70;36.10
27631;DHT22;15045;48.848;8.140;2022-07-23T17:09:54;46.20;36.00
27631;DHT22;15045;48.848;8.140;2022-07-23T17:12:19;46.40;36.20
27631;DHT22;15045;48.848;8.140;2022-07-23T17:14:45;45.80;34.70
27631;DHT22;15045;48.848;8.140;2022-07-23T17:17:11;41.60;38.50
27631;DHT22;15045;48.848;8.140;2022-07-23T17:19:37;38.80;42.60
27631;DHT22;15045;48.848;8.140;2022-07-23T17:22:03;36.70;45.40
27631;DHT22;15045;48.848;8.140;2022-07-23T17:24:29;35.30;48.50
27631;DHT22;15045;48.848;8.140;2022-07-23T17:26:55;34.20;50.00
27631;DHT22;15045;48.848;8.140;2022-07-23T17:29:20;33.60;51.60
27631;DHT22;15045;48.848;8.140;2022-07-23T17:31:46;32.90;53.00
27631;DHT22;15045;48.848;8.140;2022-07-23T17:34:11;32.80;53.40
27631;DHT22;15045;48.848;8.140;2022-07-23T17:36:38;32.50;54.30
27631;DHT22;15045;48.848;8.140;2022-07-23T17:39:05;32.20;55.30
27631;DHT22;15045;48.848;8.140;2022-07-23T17:41:31;32.00;55.60
27631;DHT22;15045;48.848;8.140;2022-07-23T17:43:56;31.90;56.30
27631;DHT22;15045;48.848;8.140;2022-07-23T17:46:25;31.70;56.60
27631;DHT22;15045;48.848;8.140;2022-07-23T17:48:50;31.60;57.50
27631;DHT22;15045;48.848;8.140;2022-07-23T17:51:16;31.20;58.10
27631;DHT22;15045;48.848;8.140;2022-07-23T17:53:41;31.20;58.60
27631;DHT22;15045;48.848;8.140;2022-07-23T17:56:07;31.00;58.70
27631;DHT22;15045;48.848;8.140;2022-07-23T17:58:32;30.80;59.50
27631;DHT22;15045;48.848;8.140;2022-07-23T18:00:59;30.80;59.50
27631;DHT22;15045;48.848;8.140;2022-07-23T18:03:24;30.60;59.50
27631;DHT22;15045;48.848;8.140;2022-07-23T18:05:50;30.60;59.40